Time;durP1;ratioP1;P1;durP2;ratioP2;P2;SDS_P1;SDS_P2;PMS_P1;PMS_P2;Temp;Humidity;BMP_temperature;BMP_pressure;BME280_temperature;BME280_humidity;BME280_pressure;Samples;Min_cycle;Max_cycle;Signal;HPM_P1;HPM_P2
2022/05/31 00:01:15;;;;;;;9.90;3.42;;;;;;;17.01;48.16;99736.66;5035239;28;20412;-74
2022/05/31 00:03:42;;;;;;;10.40;3.45;;;;;;;17.03;48.12;99739.09;5035761;28;20049;-75
2022/05/31 00:06:09;;;;;;;8.15;3.33;;;;;;;17.03;48.15;99742.72;5034969;28;20049;-74
2022/05/31 00:08:44;;;;;;;11.07;3.80;;;;;;;17.03;48.08;99734.28;5035180;28;20140;-74
2022/05/31 00:11:11;;;;;;;12.35;3.47;;;;;;;17.03;48.30;99736.28;5035148;28;20057;-73
2022/05/31 00:13:38;;;;;;;5.60;3.05;;;;;;;16.97;48.54;99741.38;5034897;28;20045;-75
2022/05/31 00:16:05;;;;;;;11.73;3.70;;;;;;;16.96;48.78;99739.75;5035684;28;20049;-76
2022/05/31 00:18:32;;;;;;;9.90;3.80;;;;;;;16.91;48.95;99736.44;5035694;28;20416;-74
2022/05/31 00:20:59;;;;;;;5.45;3.10;;;;;;;16.92;49.29;99740.84;5035003;28;20076;-74
2022/05/31 00:23:27;;;;;;;7.85;3.20;;;;;;;16.85;49.15;99744.34;5035081;28;20042;-74
2022/05/31 00:25:53;;;;;;;8.15;3.15;;;;;;;16.84;49.48;99737.09;5035132;28;20053;-75
2022/05/31 00:28:20;;;;;;;11.38;3.20;;;;;;;16.81;49.40;99746.25;5034929;28;20037;-75
2022/05/31 00:30:47;;;;;;;8.20;2.70;;;;;;;16.79;49.33;99750.63;5017324;28;20049;-74
2022/05/31 00:33:15;;;;;;;7.30;2.70;;;;;;;16.76;49.62;99740.13;5017184;28;20061;-74
2022/05/31 00:35:46;;;;;;;8.55;3.08;;;;;;;16.82;49.45;99749.88;5035020;28;20052;-75
2022/05/31 00:38:14;;;;;;;8.95;2.53;;;;;;;16.82;49.02;99739.47;5034525;28;20132;-76
2022/05/31 00:40:41;;;;;;;12.85;2.95;;;;;;;16.79;49.05;99756.25;5034334;28;20132;-74
2022/05/31 00:43:13;;;;;;;6.90;2.33;;;;;;;16.79;49.20;99750.63;5034794;28;20053;-75
2022/05/31 00:45:46;;;;;;;5.72;2.45;;;;;;;16.76;48.90;99759.78;5034353;28;20053;-75
2022/05/31 00:48:20;;;;;;;9.32;2.88;;;;;;;16.72;48.96;99762.50;5034558;28;20378;-75
2022/05/31 00:50:54;;;;;;;8.57;2.75;;;;;;;16.69;49.42;99759.63;5034354;28;20045;-75
2022/05/31 00:53:27;;;;;;;8.02;2.55;;;;;;;16.67;49.05;99753.56;5034180;28;20512;-75
2022/05/31 00:55:59;;;;;;;5.43;2.45;;;;;;;16.65;49.09;99753.09;5034106;28;20132;-75
2022/05/31 00:58:41;;;;;;;6.07;2.70;;;;;;;16.65;49.67;99750.31;5034248;28;20045;-75
2022/05/31 01:01:10;;;;;;;6.57;2.75;;;;;;;16.59;49.92;99754.59;5034221;28;20057;-75
2022/05/31 01:03:41;;;;;;;7.80;2.85;;;;;;;16.57;50.29;99745.69;5034273;28;20053;-75
2022/05/31 01:06:10;;;;;;;;;;;;;;;16.46;50.08;99758.72;5034396;28;20053;-68
2022/05/31 01:08:42;;;;;;;7.93;2.75;;;;;;;16.42;50.81;99753.78;5034200;28;19975;-69
2022/05/31 01:11:09;;;;;;;10.05;2.80;;;;;;;16.44;50.89;99750.66;5033608;28;20049;-69
2022/05/31 01:13:36;;;;;;;6.88;2.15;;;;;;;16.44;51.36;99765.47;5015435;28;20148;-69
2022/05/31 01:16:10;;;;;;;7.60;2.33;;;;;;;16.42;51.76;99758.59;5014216;28;20046;-69
2022/05/31 01:18:38;;;;;;;10.18;2.78;;;;;;;16.36;52.31;99765.66;5013903;28;20060;-69
2022/05/31 01:21:06;;;;;;;7.88;2.45;;;;;;;16.32;52.25;99754.34;5013857;28;20050;-69
2022/05/31 01:23:43;;;;;;;6.85;2.47;;;;;;;16.31;52.58;99763.97;5014124;28;20052;-69
2022/05/31 01:26:32;;;;;;;7.05;2.55;;;;;;;16.29;52.80;99771.13;5014078;28;20148;-69
2022/05/31 01:29:13;;;;;;;7.65;2.08;;;;;;;16.24;53.27;99766.59;5014224;28;20046;-68
2022/05/31 01:31:52;;;;;;;7.72;2.40;;;;;;;16.25;53.62;99770.19;5013734;28;20084;-67
2022/05/31 01:34:37;;;;;;;5.00;2.20;;;;;;;16.25;53.81;99776.66;5013928;28;20070;-68
2022/05/31 01:37:05;;;;;;;5.97;2.13;;;;;;;16.17;53.82;99769.22;5013786;28;20068;-68
2022/05/31 01:39:47;;;;;;;12.02;2.45;;;;;;;16.15;54.19;99777.22;5013622;28;20420;-68
2022/05/31 01:42:26;;;;;;;4.93;2.00;;;;;;;16.08;54.49;99777.03;5032282;28;20394;-68
2022/05/31 01:45:08;;;;;;;3.78;2.10;;;;;;;16.04;54.59;99775.31;5033981;28;20041;-69
2022/05/31 01:47:36;;;;;;;4.32;1.85;;;;;;;16.00;55.12;99775.22;5033032;28;20437;-68
2022/05/31 01:50:08;;;;;;;6.57;2.10;;;;;;;16.06;55.03;99770.16;5033092;28;20099;-68
2022/05/31 01:52:35;;;;;;;5.63;2.40;;;;;;;16.04;55.03;99767.72;5033115;28;20049;-68
2022/05/31 01:55:03;;;;;;;6.28;2.20;;;;;;;16.05;55.26;99766.53;5033268;28;20467;-68
2022/05/31 01:57:32;;;;;;;3.92;2.30;;;;;;;16.07;55.18;99772.59;5033331;28;20060;-74
2022/05/31 02:00:06;;;;;;;5.20;2.15;;;;;;;16.08;55.24;99770.63;5033470;28;20152;-74
2022/05/31 02:02:33;;;;;;;4.53;1.98;;;;;;;16.07;55.04;99778.22;5033191;28;20073;-73
2022/05/31 02:05:00;;;;;;;5.95;2.05;;;;;;;16.08;55.14;99781.84;5033102;28;20547;-74
2022/05/31 02:07:30;;;;;;;4.25;2.00;;;;;;;16.07;55.48;99774.56;5033128;28;20100;-74
2022/05/31 02:09:57;;;;;;;5.05;1.67;;;;;;;16.10;55.49;99783.09;5032945;28;20140;-74
2022/05/31 02:12:28;;;;;;;5.57;2.08;;;;;;;16.07;55.07;99772.59;5032890;28;20048;-74
2022/05/31 02:14:56;;;;;;;6.30;1.83;;;;;;;16.03;55.42;99771.69;5032714;28;20132;-75
2022/05/31 02:17:24;;;;;;;6.05;2.10;;;;;;;16.01;55.77;99773.22;5033038;28;20439;-75
2022/05/31 02:19:51;;;;;;;5.35;1.90;;;;;;;15.98;55.62;99776.75;5032932;28;20042;-74
2022/05/31 02:22:22;;;;;;;10.82;2.25;;;;;;;15.95;56.17;99777.47;5032374;28;20239;-74
2022/05/31 02:24:49;;;;;;;3.85;1.83;;;;;;;15.84;56.10;99771.59;5014957;28;20060;-74
2022/05/31 02:27:17;;;;;;;5.43;2.10;;;;;;;15.83;56.41;99781.19;5032606;28;20416;-74
2022/05/31 02:29:44;;;;;;;5.40;2.08;;;;;;;15.83;56.40;99781.19;5033014;28;20129;-73
2022/05/31 02:32:14;;;;;;;6.45;1.95;;;;;;;15.80;56.75;99783.91;5033640;28;20049;-74
2022/05/31 02:34:43;;;;;;;;;;;;;;;15.71;57.06;99788.88;5032992;28;20096;-70
2022/05/31 02:37:10;;;;;;;7.63;2.10;;;;;;;15.69;57.38;99780.03;5014691;28;20388;-70
2022/05/31 02:39:38;;;;;;;7.30;1.85;;;;;;;15.67;57.43;99786.00;5032688;28;20044;-70
2022/05/31 02:42:06;;;;;;;4.57;1.90;;;;;;;15.66;57.69;99786.34;5032329;28;20527;-69
2022/05/31 02:44:33;;;;;;;7.15;2.45;;;;;;;15.58;58.27;99785.34;5032584;28;20063;-70
2022/05/31 02:47:01;;;;;;;3.47;1.83;;;;;;;15.54;58.42;99789.25;5032221;28;20092;-70
2022/05/31 02:49:28;;;;;;;4.78;2.13;;;;;;;15.51;58.56;99789.97;5032261;28;20413;-70
2022/05/31 02:51:58;;;;;;;8.00;2.28;;;;;;;15.46;58.75;99804.22;5032966;28;20140;-71
2022/05/31 02:54:26;;;;;;;11.57;2.17;;;;;;;15.43;58.88;99800.16;5032590;28;20072;-69
2022/05/31 02:56:53;;;;;;;4.35;1.83;;;;;;;15.41;59.11;99807.28;5032646;28;20053;-69
2022/05/31 02:59:19;;;;;;;6.80;2.35;;;;;;;15.37;59.52;99795.97;5032461;28;20052;-68
2022/05/31 03:01:49;;;;;;;6.30;2.10;;;;;;;15.40;59.50;99797.25;5032055;28;20060;-68
2022/05/31 03:04:16;;;;;;;4.05;2.05;;;;;;;15.37;59.81;99801.56;5032600;28;20052;-74
2022/05/31 03:06:44;;;;;;;4.00;1.63;;;;;;;15.34;59.71;99807.84;5032202;28;20069;-75
2022/05/31 03:09:11;;;;;;;4.75;1.90;;;;;;;15.23;60.60;99806.75;5032390;28;20412;-75
2022/05/31 03:11:52;;;;;;;6.20;1.85;;;;;;;15.22;60.49;99804.31;5032229;28;20115;-75
2022/05/31 03:14:38;;;;;;;5.20;1.85;;;;;;;15.18;60.71;99812.63;5032392;28;20107;-74
2022/05/31 03:17:05;;;;;;;4.65;2.03;;;;;;;15.20;60.89;99813.09;5032297;28;20054;-75
2022/05/31 03:19:40;;;;;;;4.15;2.00;;;;;;;15.24;61.29;99813.16;5032084;28;20356;-74
2022/05/31 03:22:14;;;;;;;7.63;2.17;;;;;;;15.22;61.29;99815.53;5014216;28;20059;-74
2022/05/31 03:24:52;;;;;;;7.80;2.58;;;;;;;15.26;61.40;99811.66;5032610;28;20064;-75
2022/05/31 03:27:20;;;;;;;3.30;2.10;;;;;;;15.28;61.53;99814.91;5032557;28;20139;-74
2022/05/31 03:29:50;;;;;;;8.55;2.58;;;;;;;15.31;62.18;99813.38;5032169;28;20053;-74
2022/05/31 03:32:17;;;;;;;3.25;2.20;;;;;;;15.26;62.04;99811.66;5032363;28;20050;-71
2022/05/31 03:34:44;;;;;;;4.47;2.28;;;;;;;15.23;62.62;99808.75;5033493;28;20053;-71
2022/05/31 03:37:11;;;;;;;3.35;1.85;;;;;;;15.20;62.93;99807.47;5035830;28;20056;-70
2022/05/31 03:39:38;;;;;;;5.50;2.20;;;;;;;15.22;62.75;99809.91;5018632;28;20493;-70
2022/05/31 03:42:06;;;;;;;5.32;2.20;;;;;;;15.21;63.02;99814.69;5035690;28;20412;-70
2022/05/31 03:44:34;;;;;;;3.17;1.80;;;;;;;15.21;62.84;99823.09;5035474;28;20045;-71
2022/05/31 03:47:02;;;;;;;5.47;1.90;;;;;;;15.20;62.98;99823.47;5014393;28;20062;-70
2022/05/31 03:49:31;;;;;;;2.83;1.70;;;;;;;15.17;63.25;99827.81;5015858;28;20100;-70
2022/05/31 03:51:58;;;;;;;5.00;1.98;;;;;;;15.13;62.77;99815.66;5015890;28;20149;-71
2022/05/31 03:54:27;;;;;;;4.82;1.70;;;;;;;15.12;62.72;99811.22;5015880;28;20054;-71
2022/05/31 03:56:54;;;;;;;2.95;1.92;;;;;;;15.12;62.79;99827.22;5015719;28;20046;-70
2022/05/31 03:59:21;;;;;;;2.97;1.77;;;;;;;15.19;62.79;99821.84;5015716;28;20054;-70
2022/05/31 04:01:48;;;;;;;5.70;1.77;;;;;;;15.27;62.56;99813.28;5015627;28;20537;-72
2022/05/31 04:04:15;;;;;;;4.32;2.00;;;;;;;15.28;62.70;99814.91;5015655;28;20092;-71
2022/05/31 04:06:42;;;;;;;4.07;2.55;;;;;;;15.27;62.50;99824.47;5014075;28;20553;-69
2022/05/31 04:09:09;;;;;;;4.78;2.03;;;;;;;15.29;62.54;99822.16;5015491;28;20502;-71
2022/05/31 04:11:36;;;;;;;3.63;1.90;;;;;;;15.30;62.63;99815.38;5013176;28;20054;-71
2022/05/31 04:14:03;;;;;;;5.82;2.20;;;;;;;15.31;62.91;99808.56;4995948;28;20054;-70
2022/05/31 04:16:30;;;;;;;3.58;1.67;;;;;;;15.23;62.68;99812.38;4996113;28;20046;-71
2022/05/31 04:18:58;;;;;;;7.07;2.10;;;;;;;15.24;62.93;99810.34;4995894;28;20478;-70
2022/05/31 04:21:25;;;;;;;15.35;2.67;;;;;;;15.24;62.68;99825.19;4995492;28;20414;-70
2022/05/31 04:23:58;;;;;;;5.93;1.90;;;;;;;15.16;62.47;99823.34;4995388;28;20152;-71
2022/05/31 04:26:45;;;;;;;6.68;1.80;;;;;;;15.11;62.75;99820.81;4995547;28;20051;-71
2022/05/31 04:29:12;;;;;;;7.28;1.73;;;;;;;15.00;63.24;99814.09;4995272;28;20077;-71
2022/05/31 04:31:39;;;;;;;3.20;2.10;;;;;;;15.03;62.97;99812.53;4995365;28;20050;-70
2022/05/31 04:34:06;;;;;;;3.53;2.00;;;;;;;14.97;63.43;99819.56;4995565;28;20058;-70
2022/05/31 04:36:34;;;;;;;3.70;2.38;;;;;;;14.96;63.28;99801.97;4993853;28;20047;-70
2022/05/31 04:39:06;;;;;;;4.28;1.95;;;;;;;15.02;63.09;99811.75;4993906;28;20093;-71
2022/05/31 04:41:33;;;;;;;4.15;2.42;;;;;;;15.10;63.00;99812.78;4994999;28;20065;-70
2022/05/31 04:44:04;;;;;;;6.07;2.50;;;;;;;15.13;63.01;99818.47;4995600;28;20137;-69
2022/05/31 04:46:33;;;;;;;7.90;2.80;;;;;;;15.02;63.45;99817.34;5013950;28;20552;-70
2022/05/31 04:49:02;;;;;;;4.53;2.10;;;;;;;14.94;63.47;99812.69;5034376;28;20049;-70
2022/05/31 04:51:30;;;;;;;5.47;2.58;;;;;;;14.89;63.86;99806.53;5034469;28;20291;-70
2022/05/31 04:53:58;;;;;;;2.92;1.95;;;;;;;14.90;64.19;99816.56;5016964;28;20045;-71
2022/05/31 04:56:24;;;;;;;4.13;2.45;;;;;;;14.85;64.06;99820.44;5034195;28;20053;-71
2022/05/31 04:58:52;;;;;;;7.80;2.72;;;;;;;14.79;64.29;99813.44;5034436;28;20049;-71
2022/05/31 05:01:21;;;;;;;5.38;2.03;;;;;;;14.71;65.11;99820.00;5034220;28;20045;-71
2022/05/31 05:03:48;;;;;;;9.73;2.40;;;;;;;14.73;65.24;99820.47;5034012;28;20135;-70
2022/05/31 05:06:17;;;;;;;3.50;2.00;;;;;;;14.78;64.93;99814.63;5034188;28;20054;-75
2022/05/31 05:08:44;;;;;;;8.13;3.95;;;;;;;14.76;64.92;99805.75;5033788;28;20081;-75
2022/05/31 05:11:17;;;;;;;5.20;2.35;;;;;;;14.83;64.64;99808.75;5034637;28;20140;-74
2022/05/31 05:13:45;;;;;;;5.32;2.38;;;;;;;14.89;64.61;99806.53;5033731;28;20136;-75
2022/05/31 05:16:14;;;;;;;4.60;2.38;;;;;;;15.00;64.65;99808.47;5034014;28;20059;-75
2022/05/31 05:18:42;;;;;;;4.95;2.20;;;;;;;15.10;64.36;99801.56;5034012;28;20057;-73
2022/05/31 05:21:12;;;;;;;6.40;2.42;;;;;;;15.19;63.83;99811.44;5033865;28;20053;-74
2022/05/31 05:23:39;;;;;;;5.68;2.05;;;;;;;15.14;64.18;99808.91;5034112;28;20057;-74
2022/05/31 05:26:07;;;;;;;6.57;2.30;;;;;;;15.10;64.56;99798.75;5033519;28;20505;-76
2022/05/31 05:31:24;;;;;;;3.67;2.13;;;;;;;15.07;64.69;99797.47;5018780;28;20053;-76
2022/05/31 05:33:51;;;;;;;10.52;3.17;;;;;;;15.07;64.39;99797.47;5033724;28;20463;-73
2022/05/31 05:36:19;;;;;;;5.38;2.20;;;;;;;15.03;64.78;99796.56;5033479;28;20057;-74
2022/05/31 05:38:47;;;;;;;4.63;2.50;;;;;;;15.10;64.41;99784.75;5033644;28;20049;-74
2022/05/31 05:41:15;;;;;;;4.03;2.20;;;;;;;15.19;64.37;99791.81;5033299;28;20060;-74
2022/05/31 05:43:42;;;;;;;3.28;2.47;;;;;;;15.27;63.74;99788.03;5033412;28;20140;-73
2022/05/31 05:46:12;;;;;;;3.00;2.28;;;;;;;15.28;64.30;99781.25;5033083;28;20053;-74
2022/05/31 05:48:41;;;;;;;5.03;2.40;;;;;;;15.35;64.19;99786.25;5033301;28;20140;-75
2022/05/31 05:51:20;;;;;;;8.57;3.08;;;;;;;15.42;63.75;99786.50;5033289;28;20140;-69
2022/05/31 05:53:47;;;;;;;6.83;2.60;;;;;;;15.36;64.23;99783.09;5015928;28;20080;-69
2022/05/31 05:56:15;;;;;;;34.58;19.48;;;;;;;15.31;64.07;99786.16;5033233;28;20061;-69
2022/05/31 05:58:42;;;;;;;781.40;55.90;;;;;;;15.28;64.64;99778.47;5032764;28;20512;-69
2022/05/31 06:01:36;;;;;;;190.00;15.50;;;;;;;15.35;64.56;99781.47;5015084;28;20045;-68
2022/05/31 06:04:38;;;;;;;5.80;2.83;;;;;;;15.34;64.71;99785.44;5032958;28;20049;-70
2022/05/31 06:07:20;;;;;;;10.55;2.83;;;;;;;15.31;64.61;99786.16;5033307;28;20552;-70
2022/05/31 06:09:59;;;;;;;7.40;2.45;;;;;;;15.37;64.25;99775.50;5032618;28;20140;-70
2022/05/31 06:12:33;;;;;;;4.45;2.22;;;;;;;15.52;63.90;99774.75;5033011;28;20527;-71
2022/05/31 06:15:06;;;;;;;6.15;3.03;;;;;;;15.51;63.95;99775.94;5033098;28;20045;-70
2022/05/31 06:17:40;;;;;;;7.00;3.03;;;;;;;15.51;64.17;99776.72;5033734;28;20051;-70
2022/05/31 06:20:08;;;;;;;12.02;5.75;;;;;;;15.53;64.58;99771.59;5032759;28;20050;-69
2022/05/31 06:22:38;;;;;;;6.68;2.45;;;;;;;15.59;64.27;99775.75;5032572;28;20053;-69
2022/05/31 06:25:05;;;;;;;4.25;2.72;;;;;;;15.62;64.34;99774.22;5032828;28;20053;-70
2022/05/31 06:27:32;;;;;;;11.25;3.15;;;;;;;15.61;64.27;99772.59;5032767;28;20059;-70
2022/05/31 06:29:59;;;;;;;6.95;2.90;;;;;;;15.71;64.43;99784.09;5032345;28;20060;-70
2022/05/31 06:32:26;;;;;;;4.90;2.70;;;;;;;15.72;64.43;99791.31;5032697;28;20408;-72
2022/05/31 06:34:55;;;;;;;59.28;5.18;;;;;;;15.76;64.04;99781.03;5032616;28;20061;-70
2022/05/31 06:37:22;;;;;;;5.75;2.53;;;;;;;15.87;64.39;99781.31;5032511;28;20053;-70
2022/05/31 06:39:49;;;;;;;6.38;3.00;;;;;;;15.98;63.96;99788.81;5032536;28;20393;-70
2022/05/31 06:42:16;;;;;;;18.90;9.82;;;;;;;16.01;64.20;99782.47;5014961;28;20076;-71
2022/05/31 06:44:43;;;;;;;6.80;3.28;;;;;;;16.05;63.78;99783.34;5032427;28;20057;-70
2022/05/31 06:47:12;;;;;;;3.95;2.58;;;;;;;16.11;63.39;99787.50;5032045;28;20056;-70
2022/05/31 06:49:39;;;;;;;5.20;2.83;;;;;;;16.09;63.35;99784.28;5032794;28;20054;-72
2022/05/31 06:57:44;;;;;;;11.40;5.28;;;;;;;16.18;63.19;99773.69;5032534;28;20148;-71
2022/05/31 07:00:15;;;;;;;6.60;2.97;;;;;;;16.20;62.53;99787.34;5031994;28;20495;-71
2022/05/31 07:02:43;;;;;;;7.20;2.80;;;;;;;16.13;62.67;99785.16;5032408;28;20132;-70
2022/05/31 07:05:11;;;;;;;11.30;2.78;;;;;;;16.06;63.21;99778.56;5031933;28;20080;-69
2022/05/31 07:07:39;;;;;;;7.22;3.20;;;;;;;16.05;63.07;99782.56;5032673;28;20483;-67
2022/05/31 07:10:08;;;;;;;6.47;3.17;;;;;;;16.00;63.46;99780.84;5033852;28;20071;-68
2022/05/31 07:12:35;;;;;;;8.30;3.08;;;;;;;16.03;63.58;99766.09;5025752;28;20064;-70
2022/05/31 07:15:04;;;;;;;8.52;3.60;;;;;;;16.12;63.54;99771.50;5016103;28;20054;-67
2022/05/31 07:17:31;;;;;;;7.20;3.75;;;;;;;16.21;63.50;99775.75;5016215;28;20061;-69
2022/05/31 07:19:58;;;;;;;6.65;2.95;;;;;;;16.25;63.26;99767.41;5016282;28;20042;-69
2022/05/31 07:22:34;;;;;;;5.35;3.20;;;;;;;16.29;63.11;99766.31;5016416;28;20056;-69
2022/05/31 07:25:01;;;;;;;10.48;4.07;;;;;;;16.39;62.82;99768.56;5015876;28;20505;-69
2022/05/31 07:27:29;;;;;;;5.38;3.47;;;;;;;16.46;62.87;99761.50;5016492;28;20477;-68
2022/05/31 07:29:56;;;;;;;12.43;3.58;;;;;;;16.63;62.56;99763.88;5016019;28;20049;-69
2022/05/31 07:32:23;;;;;;;7.53;3.75;;;;;;;16.74;62.45;99770.56;5016128;28;20060;-70
2022/05/31 07:35:11;;;;;;;7.95;4.10;;;;;;;17.04;61.90;99763.19;5015710;28;20061;-71
2022/05/31 07:37:38;;;;;;;10.27;3.72;;;;;;;17.35;60.90;99768.66;5016143;28;20424;-70
2022/05/31 07:40:05;;;;;;;4.97;3.13;;;;;;;17.48;60.40;99768.16;5015960;28;20046;-70
2022/05/31 07:42:33;;;;;;;4.90;3.25;;;;;;;17.69;59.91;99759.28;5016201;28;20050;-70
2022/05/31 07:45:00;;;;;;;13.27;7.47;;;;;;;17.93;59.65;99779.44;5015891;28;20148;-70
2022/05/31 07:47:30;;;;;;;7.20;3.40;;;;;;;18.48;58.02;99763.84;5015587;28;20116;-70
2022/05/31 07:49:57;;;;;;;8.05;3.90;;;;;;;19.12;56.74;99769.16;5015668;28;20409;-72
2022/05/31 07:52:24;;;;;;;8.63;3.92;;;;;;;18.78;57.36;99764.69;5015848;28;20057;-70
2022/05/31 07:54:50;;;;;;;9.05;4.00;;;;;;;18.49;57.95;99767.47;5015497;28;20142;-71
2022/05/31 08:00:04;;;;;;;8.77;4.53;;;;;;;18.14;59.26;99770.50;5015632;28;20425;-71
2022/05/31 08:02:31;;;;;;;8.18;4.07;;;;;;;18.10;59.29;99769.66;5032001;28;20085;-70
2022/05/31 08:04:58;;;;;;;9.85;4.88;;;;;;;18.07;59.21;99762.78;5035323;28;20150;-69
2022/05/31 08:07:25;;;;;;;14.57;4.82;;;;;;;17.98;59.62;99767.03;5035152;28;20452;-71
2022/05/31 08:09:52;;;;;;;11.88;5.43;;;;;;;17.76;59.64;99774.28;5035249;28;20060;-70
2022/05/31 08:12:19;;;;;;;9.35;4.95;;;;;;;17.61;59.84;99778.03;5035036;28;20504;-70
2022/05/31 08:14:45;;;;;;;9.43;5.07;;;;;;;17.45;60.05;99768.91;5034795;28;20061;-71
2022/05/31 08:17:12;;;;;;;8.15;4.93;;;;;;;17.35;60.58;99771.47;5035120;28;20060;-72
2022/05/31 08:19:44;;;;;;;9.38;5.40;;;;;;;17.39;60.82;99775.97;5035337;28;20128;-70
2022/05/31 08:22:11;;;;;;;8.25;5.35;;;;;;;17.40;60.93;99765.53;5033740;28;20140;-70
2022/05/31 08:24:38;;;;;;;9.00;6.18;;;;;;;17.34;60.84;99767.00;5034707;28;20053;-71
2022/05/31 08:27:11;;;;;;;14.18;6.97;;;;;;;17.25;61.13;99770.06;5034438;28;20487;-70
2022/05/31 08:29:39;;;;;;;11.55;6.10;;;;;;;17.20;61.37;99761.13;5035110;28;20050;-70
2022/05/31 08:32:06;;;;;;;11.07;6.00;;;;;;;17.18;61.35;99753.06;5035131;28;20414;-70
2022/05/31 08:34:33;;;;;;;10.07;5.85;;;;;;;17.12;61.50;99765.78;5034574;28;20571;-70
2022/05/31 08:37:00;;;;;;;11.18;6.53;;;;;;;17.10;61.93;99764.50;5034373;28;20132;-70
2022/05/31 08:39:27;;;;;;;13.27;6.07;;;;;;;17.12;61.97;99759.34;5016709;28;20072;-71
2022/05/31 08:42:09;;;;;;;13.23;6.50;;;;;;;17.20;62.00;99756.28;5034605;28;20496;-70
2022/05/31 08:44:52;;;;;;;9.68;6.20;;;;;;;17.24;62.03;99760.00;5034758;28;20045;-71
2022/05/31 08:47:44;;;;;;;10.20;6.10;;;;;;;17.30;61.74;99764.16;5034244;28;20115;-69
2022/05/31 08:53:34;;;;;;;12.50;6.25;;;;;;;17.16;61.32;99763.03;5034406;28;20384;-69
2022/05/31 08:59:20;;;;;;;9.82;6.00;;;;;;;17.34;61.12;99761.38;5021592;28;20458;-69
2022/05/31 09:01:52;;;;;;;8.40;5.13;;;;;;;17.38;61.32;99763.09;5033754;28;20517;-69
2022/05/31 09:04:27;;;;;;;14.27;5.30;;;;;;;17.37;61.33;99755.00;5034393;28;20053;-68
2022/05/31 09:07:08;;;;;;;19.10;10.52;;;;;;;17.39;61.27;99763.91;5033730;28;20060;-69
2022/05/31 09:10:04;;;;;;;8.35;5.03;;;;;;;17.36;61.54;99756.22;5033957;28;20053;-69
2022/05/31 09:12:49;;;;;;;10.52;5.35;;;;;;;17.37;61.31;99766.25;5029063;28;20081;-68
2022/05/31 09:15:23;;;;;;;14.35;4.47;;;;;;;17.42;61.33;99768.78;5034139;28;20053;-68
2022/05/31 09:18:25;;;;;;;10.23;4.60;;;;;;;17.55;60.89;99757.00;5034009;28;20159;-69
2022/05/31 09:20:55;;;;;;;8.20;3.88;;;;;;;17.61;60.76;99757.50;4980223;28;20057;-68
2022/05/31 09:23:29;;;;;;;8.50;4.05;;;;;;;17.69;60.38;99757.28;5033868;28;20057;-69
2022/05/31 09:26:19;;;;;;;6.15;3.20;;;;;;;17.83;59.91;99759.53;5033829;28;20509;-69
2022/05/31 09:28:57;;;;;;;9.50;3.80;;;;;;;17.89;59.86;99758.03;5033756;28;20505;-69
2022/05/31 09:31:24;;;;;;;8.00;5.32;;;;;;;17.94;59.86;99764.16;5033451;28;20049;-68
2022/05/31 09:34:34;;;;;;;26.08;13.07;;;;;;;17.88;59.88;99773.28;5033454;28;20081;-69
2022/05/31 09:37:25;;;;;;;13.60;4.00;;;;;;;17.66;60.24;99779.72;4996205;28;20160;-70
2022/05/31 09:40:01;;;;;;;7.93;4.07;;;;;;;17.43;60.25;99759.16;5015588;28;20051;-69
2022/05/31 09:42:52;;;;;;;6.03;3.53;;;;;;;17.28;60.41;99765.69;5033533;28;20417;-69
2022/05/31 09:45:21;;;;;;;8.75;3.53;;;;;;;17.21;60.59;99771.19;5033269;28;20045;-69
2022/05/31 09:47:50;;;;;;;4.90;2.97;;;;;;;17.18;60.14;99771.91;5033459;28;20053;-67
2022/05/31 09:50:26;;;;;;;6.10;3.17;;;;;;;17.14;60.02;99763.41;5033047;28;20041;-69
2022/05/31 09:52:56;;;;;;;5.93;3.40;;;;;;;17.07;60.36;99768.88;5033296;28;20504;-70
2022/05/31 09:58:31;;;;;;;8.48;3.28;;;;;;;17.03;60.26;99767.19;5033245;28;20077;-69
2022/05/31 10:01:20;;;;;;;6.93;3.33;;;;;;;17.08;60.12;99764.09;5033016;28;20103;-69
2022/05/31 10:03:53;;;;;;;9.63;3.70;;;;;;;17.10;60.10;99764.50;5033142;28;20057;-69
2022/05/31 10:06:54;;;;;;;3.92;2.90;;;;;;;17.08;60.13;99764.88;5032964;28;20057;-68
2022/05/31 10:09:25;;;;;;;20.27;9.95;;;;;;;17.08;60.38;99766.91;5032848;28;20056;-69
2022/05/31 10:12:14;;;;;;;14.00;4.13;;;;;;;17.06;60.24;99766.44;5027829;28;20100;-69
2022/05/31 10:14:45;;;;;;;5.75;3.40;;;;;;;17.10;59.90;99762.53;5013223;28;20049;-69
2022/05/31 10:17:27;;;;;;;4.30;3.17;;;;;;;17.10;60.09;99761.72;5013433;28;20096;-68
2022/05/31 10:20:19;;;;;;;7.10;3.47;;;;;;;17.09;60.03;99763.72;5013005;28;20136;-70
2022/05/31 10:22:57;;;;;;;7.90;3.72;;;;;;;17.06;60.32;99758.84;5013028;28;20533;-67
2022/05/31 10:25:27;;;;;;;4.85;3.22;;;;;;;17.02;60.46;99766.38;5012911;28;20077;-70
2022/05/31 10:27:58;;;;;;;7.28;3.20;;;;;;;16.93;60.90;99762.19;5012982;28;20473;-70
2022/05/31 10:30:25;;;;;;;;;;;;;;;16.76;61.18;99756.97;5013063;28;20128;-68
2022/05/31 10:33:14;;;;;;;4.65;3.00;;;;;;;16.82;61.08;99766.75;5012675;28;19926;-70
2022/05/31 10:35:43;;;;;;;8.15;3.30;;;;;;;16.84;61.24;99758.75;5011932;28;20068;-69
2022/05/31 10:38:15;;;;;;;9.03;3.30;;;;;;;16.83;61.41;99748.69;5013006;28;20100;-68
2022/05/31 10:41:02;;;;;;;5.75;3.50;;;;;;;16.79;61.25;99764.66;5023338;28;20417;-69
2022/05/31 10:43:32;;;;;;;9.85;4.45;;;;;;;16.73;61.57;99763.34;5032400;28;20408;-71
2022/05/31 10:46:15;;;;;;;6.72;2.92;;;;;;;16.68;61.48;99755.19;5032044;28;20089;-69
2022/05/31 10:48:47;;;;;;;5.47;3.33;;;;;;;16.72;61.87;99761.72;5032474;28;20049;-68
2022/05/31 10:51:26;;;;;;;5.32;3.35;;;;;;;16.81;61.82;99767.94;5032364;28;20077;-69
2022/05/31 10:54:40;;;;;;;6.85;3.65;;;;;;;16.80;61.89;99769.09;4998697;28;20054;-69
2022/05/31 10:57:23;;;;;;;6.47;3.53;;;;;;;16.81;62.07;99771.53;5032243;28;20080;-74
2022/05/31 10:59:59;;;;;;;6.50;3.42;;;;;;;16.79;62.30;99775.91;5030621;28;20055;-72
2022/05/31 11:02:44;;;;;;;6.05;3.63;;;;;;;16.74;62.19;99768.59;5031004;28;20101;-69
2022/05/31 11:05:15;;;;;;;5.00;3.25;;;;;;;16.72;62.69;99772.94;5026848;28;20085;-71
2022/05/31 11:14:07;;;;;;;10.57;3.55;;;;;;;16.82;62.64;99773.19;5032035;28;20073;-71
2022/05/31 11:16:55;;;;;;;10.77;4.30;;;;;;;16.97;62.15;99772.31;5032062;28;20416;-71
2022/05/31 11:19:50;;;;;;;13.57;3.75;;;;;;;17.07;62.15;99776.50;4998134;28;20068;-71
2022/05/31 11:22:38;;;;;;;6.43;3.80;;;;;;;17.18;61.92;99783.16;5014062;28;20144;-72
2022/05/31 11:25:24;;;;;;;12.27;4.40;;;;;;;17.27;61.61;99778.94;5032201;28;20053;-71
2022/05/31 11:28:03;;;;;;;6.97;3.92;;;;;;;17.32;61.74;99783.47;5031747;28;20063;-71
2022/05/31 11:30:41;;;;;;;12.20;4.03;;;;;;;17.38;61.78;99784.78;5031553;28;20416;-71
2022/05/31 11:33:46;;;;;;;11.45;4.22;;;;;;;17.43;61.52;99781.66;5032168;28;20501;-72
2022/05/31 11:36:24;;;;;;;8.20;4.30;;;;;;;17.43;61.67;99779.69;4971185;28;20051;-70
2022/05/31 11:39:16;;;;;;;10.82;3.90;;;;;;;17.46;62.09;99783.75;4971360;28;20102;-71
2022/05/31 11:42:18;;;;;;;7.00;4.72;;;;;;;17.52;62.14;99774.66;4971122;28;20125;-70
2022/05/31 11:44:58;;;;;;;7.22;4.32;;;;;;;17.63;61.90;99780.47;4971259;28;20137;-71
2022/05/31 11:47:29;;;;;;;7.25;4.47;;;;;;;17.72;61.43;99786.66;4970943;28;20055;-70
2022/05/31 11:50:16;;;;;;;8.45;4.80;;;;;;;17.71;61.56;99780.22;4970732;28;20059;-71
2022/05/31 11:52:56;;;;;;;9.10;5.15;;;;;;;17.79;61.55;99790.41;4955681;28;20164;-71
2022/05/31 11:55:29;;;;;;;10.95;4.95;;;;;;;17.84;61.41;99787.31;4969805;28;20622;-72
2022/05/31 11:58:05;;;;;;;9.23;4.68;;;;;;;17.91;60.88;99786.59;4957340;28;20541;-72
2022/05/31 12:00:40;;;;;;;12.18;4.53;;;;;;;18.06;60.83;99782.88;4974652;28;20063;-71
2022/05/31 12:03:23;;;;;;;6.72;4.32;;;;;;;18.14;60.50;99787.41;4971662;28;20125;-72
2022/05/31 12:05:57;;;;;;;6.78;4.20;;;;;;;18.01;60.94;99786.00;4974888;28;20062;-72
2022/05/31 12:08:40;;;;;;;7.90;4.10;;;;;;;18.04;60.81;99790.88;5014916;28;20045;-72
2022/05/31 12:11:26;;;;;;;6.78;4.43;;;;;;;18.11;60.94;99788.16;5014667;28;20038;-72
2022/05/31 12:13:55;;;;;;;7.18;4.63;;;;;;;18.23;60.51;99799.22;5014964;28;20052;-72
2022/05/31 12:16:23;;;;;;;10.02;4.13;;;;;;;18.34;60.26;99788.94;5013929;28;20568;-71
2022/05/31 12:19:29;;;;;;;8.65;4.35;;;;;;;18.39;59.97;99793.47;5013453;28;20050;-75
2022/05/31 12:22:09;;;;;;;9.32;3.63;;;;;;;18.45;60.13;99798.44;4984052;28;20054;-71
2022/05/31 12:24:51;;;;;;;6.65;4.18;;;;;;;18.42;59.69;99804.81;5011791;28;20441;-74